KAID/AID METAR and TAF weather

Enter ICAO airport designator
Station Type Date Time Source
KAID METAR 2022/06/30 13:15 UTC NOAA

KAID 301315Z AUTO 19004KT 10SM CLR 24/08 A3022 RMK AO2 T02360081


Station Type Date Time Source
KAID Decoded METAR 2022/06/30 13:15 UTC NOAA

Anderson Municipal, IN, United States (KAID) 40-07N 085-37W
Jun 30, 2022 - 09:15 AM EDT / 2022.06.30 1315 UTC
Wind: from the S (190 degrees) at 5 MPH (4 KT):0
Visibility: 10 mile(s):0
Sky conditions: clear
Temperature: 74.5 F (23.6 C)
Dew Point: 46.6 F (8.1 C)
Relative Humidity: 37%
Pressure (altimeter): 30.22 in. Hg (1023 hPa)
ob: KAID 301315Z AUTO 19004KT 10SM CLR 24/08 A3022 RMK AO2 T02360081
cycle: 13

Station Type Date Time Source
KAID TAF UTC NOAA

Error!

Example: see airport list